Time;durP1;ratioP1;P1;durP2;ratioP2;P2;SDS_P1;SDS_P2;PMS_P1;PMS_P2;Temp;Humidity;BMP_temperature;BMP_pressure;BME280_temperature;BME280_humidity;BME280_pressure;Samples;Min_cycle;Max_cycle;Signal;HPM_P1;HPM_P2
2022/12/03 00:01:47;;;;;;;32.83;12.63;;;;;;;6.86;97.52;97807.75;5066602;28;20251;-81
2022/12/03 00:04:14;;;;;;;29.93;8.83;;;;;;;6.87;97.99;97812.88;5066391;28;20206;-78
2022/12/03 00:06:41;;;;;;;25.80;10.03;;;;;;;6.87;97.99;97809.44;5066672;28;20216;-79
2022/12/03 00:09:09;;;;;;;27.20;9.47;;;;;;;6.94;97.24;97824.75;5067002;28;20211;-79
2022/12/03 00:11:36;;;;;;;32.93;9.40;;;;;;;6.93;97.69;97815.31;5074445;28;20222;-80
2022/12/03 00:14:03;;;;;;;20.60;8.83;;;;;;;6.90;96.46;97807.69;5077816;28;20217;-80
2022/12/03 00:16:30;;;;;;;26.10;8.47;;;;;;;6.97;96.23;97824.69;5086808;28;20690;-80
2022/12/03 00:18:59;;;;;;;34.90;7.53;;;;;;;6.92;97.31;97825.66;5086379;28;20294;-79
2022/12/03 00:21:28;;;;;;;26.97;7.33;;;;;;;6.97;96.94;97827.25;5080118;28;20210;-79
2022/12/03 00:23:55;;;;;;;24.60;7.43;;;;;;;6.93;96.24;97812.75;5075030;28;20205;-78
2022/12/03 00:26:22;;;;;;;24.23;8.53;;;;;;;6.96;97.26;97827.31;5066357;28;20190;-79
2022/12/03 00:28:50;;;;;;;27.47;7.70;;;;;;;6.91;97.19;97831.66;5047907;28;20240;-79
2022/12/03 00:31:17;;;;;;;28.80;7.83;;;;;;;6.92;97.53;97841.09;5071024;28;20202;-79
2022/12/03 00:33:44;;;;;;;31.67;8.17;;;;;;;6.86;96.59;97844.63;5074905;28;20226;-79
2022/12/03 00:36:11;;;;;;;22.03;7.63;;;;;;;6.89;97.78;97836.00;5066257;28;20210;-79
2022/12/03 00:38:38;;;;;;;28.90;7.97;;;;;;;6.78;97.36;97845.66;5066124;28;20198;-79
2022/12/03 00:41:04;;;;;;;32.17;7.43;;;;;;;6.76;97.53;97840.53;5069601;28;20198;-78
2022/12/03 00:43:31;;;;;;;22.53;6.93;;;;;;;6.76;97.21;97837.13;5075578;28;20210;-80
2022/12/03 00:45:58;;;;;;;64.77;9.73;;;;;;;6.83;97.81;97846.41;5065705;28;20550;-78
2022/12/03 00:48:26;;;;;;;58.03;10.83;;;;;;;6.53;98.58;97851.22;5066133;28;20202;-79
2022/12/03 00:50:53;;;;;;;46.90;9.80;;;;;;;6.59;99.83;97852.84;5070369;28;20286;-79
2022/12/03 00:53:20;;;;;;;50.40;10.33;;;;;;;6.43;99.12;97811.09;5080730;28;20256;-79
2022/12/03 00:55:49;;;;;;;39.10;9.77;;;;;;;6.54;99.18;97837.50;5069856;28;20189;-79
2022/12/03 00:58:16;;;;;;;91.83;14.33;;;;;;;6.68;99.41;97852.69;5069797;28;20616;-80
2022/12/03 01:00:43;;;;;;;26.10;9.97;;;;;;;6.62;98.04;97857.94;5072414;28;20203;-79
2022/12/03 01:03:10;;;;;;;43.40;10.40;;;;;;;6.69;99.17;97853.53;5080989;28;20257;-80
2022/12/03 01:05:37;;;;;;;40.10;10.87;;;;;;;6.69;98.66;97862.13;5070879;28;20208;-78
2022/12/03 01:08:04;;;;;;;51.47;10.77;;;;;;;6.63;99.05;97863.94;5069501;28;20295;-78
2022/12/03 01:10:31;;;;;;;44.50;10.77;;;;;;;6.70;98.81;97866.38;5070672;28;20225;-78
2022/12/03 01:12:58;;;;;;;44.80;10.97;;;;;;;6.76;98.52;97863.69;5081345;28;20222;-79
2022/12/03 01:15:25;;;;;;;34.60;9.67;;;;;;;6.79;98.42;97862.78;5051215;28;20199;-79
2022/12/03 01:17:53;;;;;;;27.80;10.30;;;;;;;6.77;99.05;97851.69;5051326;28;20633;-79
2022/12/03 01:20:20;;;;;;;42.33;11.23;;;;;;;6.77;98.94;97869.69;5069738;28;20225;-78
2022/12/03 01:22:47;;;;;;;25.87;8.80;;;;;;;6.52;97.89;97818.66;5071870;28;20217;-80
2022/12/03 01:25:13;;;;;;;38.83;9.97;;;;;;;6.70;98.86;97862.97;5062906;28;20285;-79
2022/12/03 01:27:40;;;;;;;33.20;10.57;;;;;;;6.68;98.97;97862.97;5089192;28;20210;-80
2022/12/03 01:30:08;;;;;;;35.73;10.63;;;;;;;6.78;99.14;97872.22;5089848;28;20297;-80
2022/12/03 01:32:35;;;;;;;24.77;8.73;;;;;;;6.83;99.09;97867.00;5087177;28;20205;-79
2022/12/03 01:35:03;;;;;;;30.20;9.57;;;;;;;6.76;98.25;97862.88;5081307;28;20307;-79
2022/12/03 01:37:30;;;;;;;33.73;10.60;;;;;;;6.80;98.54;97883.34;5084273;28;20215;-81
2022/12/03 01:39:59;;;;;;;29.80;9.13;;;;;;;6.76;97.81;97883.44;5089389;28;20712;-81
2022/12/03 01:42:38;;;;;;;28.73;9.77;;;;;;;6.66;98.33;97859.56;5070204;28;20195;-79
2022/12/03 01:45:06;;;;;;;27.53;9.70;;;;;;;6.82;97.35;97885.91;5085865;28;20258;-80
2022/12/03 01:47:35;;;;;;;21.43;8.77;;;;;;;6.89;97.65;97887.50;5062032;28;20576;-80
2022/12/03 01:50:29;;;;;;;31.80;10.07;;;;;;;6.73;97.51;97868.91;5075497;28;20225;-81
2022/12/03 01:52:59;;;;;;;27.50;10.90;;;;;;;6.80;97.60;97890.25;5069443;28;20267;-79
2022/12/03 01:55:26;;;;;;;27.20;10.57;;;;;;;6.80;97.61;97885.09;5064240;28;20241;-81
2022/12/03 01:57:57;;;;;;;23.87;10.50;;;;;;;6.94;97.56;97889.13;5087957;28;20236;-80
2022/12/03 02:00:26;;;;;;;28.43;10.27;;;;;;;6.90;97.86;97890.06;5067878;28;20272;-80
2022/12/03 02:02:56;;;;;;;26.57;11.67;;;;;;;6.77;98.08;97874.84;5081325;28;20233;-79
2022/12/03 02:05:28;;;;;;;24.30;10.13;;;;;;;6.69;98.30;97895.56;5080068;28;20204;-79
2022/12/03 02:07:56;;;;;;;24.43;11.53;;;;;;;6.52;99.76;97877.84;5069437;28;20204;-80
2022/12/03 02:10:33;;;;;;;27.73;11.23;;;;;;;6.49;99.51;97870.16;5051125;28;20186;-80
2022/12/03 02:13:04;;;;;;;18.73;9.37;;;;;;;6.54;99.96;97885.53;5069132;28;20691;-79
2022/12/03 02:15:32;;;;;;;20.93;10.47;;;;;;;6.54;99.22;97849.50;5073338;28;20195;-78
2022/12/03 02:17:59;;;;;;;18.73;9.27;;;;;;;6.79;98.53;97875.66;5077705;28;20242;-79
2022/12/03 02:20:26;;;;;;;21.27;9.17;;;;;;;6.63;99.32;97874.22;5079733;28;20284;-79
2022/12/03 02:23:03;;;;;;;20.00;8.93;;;;;;;6.55;100.00;97880.34;5068136;28;20199;-80
2022/12/03 02:25:33;;;;;;;21.30;9.57;;;;;;;6.51;100.00;97870.97;5075124;28;20870;-79
2022/12/03 02:28:01;;;;;;;20.07;9.30;;;;;;;6.63;100.00;97884.53;5080785;28;20211;-80
2022/12/03 02:30:30;;;;;;;16.93;8.83;;;;;;;6.72;99.50;97880.06;5079606;28;20230;-80
2022/12/03 02:32:58;;;;;;;17.00;9.63;;;;;;;6.55;99.04;97862.34;5068518;28;20199;-80
2022/12/03 02:35:29;;;;;;;21.10;11.10;;;;;;;6.58;99.85;97880.31;5071643;28;20208;-81
2022/12/03 02:38:06;;;;;;;17.93;9.33;;;;;;;6.76;100.00;97891.19;5088364;28;20198;-80
2022/12/03 02:40:33;;;;;;;21.40;11.03;;;;;;;6.82;98.76;97880.78;5088325;28;20214;-80
2022/12/03 02:43:02;;;;;;;22.27;12.37;;;;;;;6.74;98.63;97882.63;5087203;28;20305;-81
2022/12/03 02:45:41;;;;;;;21.77;11.60;;;;;;;6.73;99.61;97886.06;5070952;28;20256;-80
2022/12/03 02:48:20;;;;;;;21.57;11.53;;;;;;;6.91;99.03;97885.75;5082642;28;20265;-80
2022/12/03 02:50:57;;;;;;;25.10;12.80;;;;;;;7.00;98.23;97885.59;5088053;28;20656;-80
2022/12/03 02:53:36;;;;;;;21.97;11.90;;;;;;;7.03;98.08;97890.66;5072896;28;20598;-79
2022/12/03 02:56:04;;;;;;;26.63;13.03;;;;;;;6.88;97.52;97871.22;5076531;28;20233;-80
2022/12/03 02:58:32;;;;;;;22.20;11.77;;;;;;;7.02;98.27;97881.25;5085919;28;20260;-81
2022/12/03 03:01:02;;;;;;;20.53;11.20;;;;;;;7.04;97.55;97884.66;5075752;28;20211;-80
2022/12/03 03:03:31;;;;;;;17.13;9.47;;;;;;;7.03;98.32;97894.09;5072150;28;20232;-80
2022/12/03 03:06:01;;;;;;;17.77;9.53;;;;;;;6.83;98.19;97856.72;5074568;28;20202;-79
2022/12/03 03:08:29;;;;;;;16.47;10.40;;;;;;;6.85;97.35;97858.38;5088590;28;20201;-79
2022/12/03 03:10:59;;;;;;;16.90;9.50;;;;;;;7.07;97.53;97889.72;5082181;28;20202;-78
2022/12/03 03:13:28;;;;;;;14.97;8.17;;;;;;;7.10;98.04;97895.69;5079195;28;20288;-79
2022/12/03 03:15:55;;;;;;;19.60;8.43;;;;;;;7.09;97.34;97891.41;5068036;28;20241;-79
2022/12/03 03:18:22;;;;;;;26.67;10.23;;;;;;;7.02;98.03;97899.28;5068874;28;20199;-79
2022/12/03 03:20:49;;;;;;;20.60;8.90;;;;;;;6.74;97.31;97868.00;5085231;28;20206;-79
2022/12/03 03:23:19;;;;;;;21.80;9.67;;;;;;;7.02;96.64;97904.44;5087915;28;20264;-79
2022/12/03 03:25:52;;;;;;;21.93;9.47;;;;;;;6.91;97.59;97906.34;5072538;28;20200;-80
2022/12/03 03:28:21;;;;;;;18.50;9.03;;;;;;;6.95;98.43;97897.69;5072501;28;20235;-79
2022/12/03 03:30:48;;;;;;;23.37;9.70;;;;;;;6.81;97.53;97868.75;5082763;28;20217;-79
2022/12/03 03:33:15;;;;;;;16.40;7.77;;;;;;;7.01;97.38;97905.28;5063080;28;20306;-80
2022/12/03 03:35:44;;;;;;;17.00;8.20;;;;;;;6.94;98.42;97906.28;5087650;28;20281;-80
2022/12/03 03:38:11;;;;;;;27.00;10.23;;;;;;;6.94;97.98;97904.56;5085484;28;20198;-80
2022/12/03 03:40:38;;;;;;;38.70;10.60;;;;;;;6.85;97.24;97916.75;5084095;28;20205;-79
2022/12/03 03:43:06;;;;;;;27.00;9.93;;;;;;;6.74;98.44;97918.66;5057701;28;20646;-79
2022/12/03 03:45:33;;;;;;;29.87;8.90;;;;;;;6.74;97.86;97909.19;5075859;28;20298;-79
2022/12/03 03:48:00;;;;;;;21.60;8.60;;;;;;;6.80;97.83;97934.84;5066525;28;20252;-79
2022/12/03 03:50:29;;;;;;;30.47;8.60;;;;;;;6.65;98.32;97922.25;5076646;28;20219;-79
2022/12/03 03:52:58;;;;;;;18.77;8.03;;;;;;;6.82;98.47;97921.97;5066411;28;20188;-79
2022/12/03 03:55:26;;;;;;;24.60;9.70;;;;;;;6.63;98.57;97925.69;5066757;28;20227;-79
2022/12/03 03:57:53;;;;;;;18.90;8.10;;;;;;;6.69;97.68;97920.44;5066519;28;20300;-78
2022/12/03 04:00:20;;;;;;;22.23;10.17;;;;;;;6.79;97.87;97932.28;5070958;28;20202;-80
2022/12/03 04:02:47;;;;;;;21.23;10.40;;;;;;;6.85;97.69;97929.59;5072886;28;20207;-80
2022/12/03 04:05:17;;;;;;;18.73;9.83;;;;;;;6.84;96.39;97925.34;5074252;28;20221;-78
2022/12/03 04:07:45;;;;;;;23.43;10.37;;;;;;;6.89;97.52;97937.25;5086656;28;20206;-79
2022/12/03 04:12:59;;;;;;;21.07;10.77;;;;;;;6.77;96.57;97926.31;5072907;28;20261;-80
2022/12/03 04:15:27;;;;;;;24.57;11.33;;;;;;;6.79;97.21;97927.16;5082550;28;20683;-81
2022/12/03 04:20:40;;;;;;;20.40;10.63;;;;;;;6.78;96.54;97930.59;5067199;28;20213;-81
2022/12/03 04:23:08;;;;;;;19.93;10.53;;;;;;;6.72;96.48;97931.53;5082625;28;20211;-80
2022/12/03 04:36:37;;;;;;;27.03;13.60;;;;;;;6.85;96.31;97925.31;5081902;28;20302;-80
2022/12/03 04:39:04;;;;;;;24.67;13.33;;;;;;;7.07;95.39;97936.09;5053638;28;20343;-79
2022/12/03 04:41:31;;;;;;;23.87;10.77;;;;;;;7.10;95.88;97933.47;5068846;28;20634;-79
2022/12/03 04:46:45;;;;;;;17.17;9.33;;;;;;;7.19;95.46;97933.31;5059006;28;20770;-80
2022/12/03 04:49:12;;;;;;;15.70;9.10;;;;;;;7.11;94.89;97932.59;5066327;28;20212;-80
2022/12/03 04:51:38;;;;;;;15.93;8.63;;;;;;;7.16;94.59;97938.50;5066583;28;20179;-80
2022/12/03 04:54:05;;;;;;;15.70;8.70;;;;;;;7.07;95.79;97938.66;5083384;28;20256;-80
2022/12/03 04:56:32;;;;;;;14.10;8.27;;;;;;;7.00;95.06;97947.38;5058196;28;20205;-79
2022/12/03 04:58:59;;;;;;;16.53;9.10;;;;;;;6.72;95.94;97903.22;5066222;28;20229;-80
2022/12/03 05:01:26;;;;;;;17.57;9.23;;;;;;;6.86;96.19;97937.31;5066278;28;20199;-80
2022/12/03 05:03:53;;;;;;;18.20;8.77;;;;;;;6.85;96.09;97945.91;5069760;28;20303;-79
2022/12/03 05:06:20;;;;;;;12.43;7.73;;;;;;;6.77;96.03;97934.91;5085357;28;20194;-80
2022/12/03 05:08:47;;;;;;;12.30;7.37;;;;;;;6.92;95.87;97931.22;5066057;28;20196;-80
2022/12/03 05:11:14;;;;;;;14.10;7.67;;;;;;;6.92;96.39;97947.53;5065963;28;20185;-81
2022/12/03 05:13:41;;;;;;;13.37;8.57;;;;;;;6.90;95.59;97946.69;5076640;28;20231;-79
2022/12/03 05:16:09;;;;;;;13.63;8.47;;;;;;;6.81;96.32;97936.53;5074184;28;20214;-79
2022/12/03 05:18:36;;;;;;;13.67;8.87;;;;;;;6.96;96.26;97964.63;5073327;28;20694;-80
2022/12/03 05:21:03;;;;;;;16.00;9.97;;;;;;;6.97;96.23;97962.88;5086082;28;20226;-81
2022/12/03 05:23:31;;;;;;;12.90;8.33;;;;;;;6.96;95.46;97974.91;5066447;28;20561;-80
2022/12/03 05:25:57;;;;;;;17.87;10.20;;;;;;;6.94;95.83;97975.81;5070117;28;20212;-80
2022/12/03 05:28:24;;;;;;;14.23;9.43;;;;;;;6.84;95.36;97945.94;5086340;28;20589;-78
2022/12/03 05:30:51;;;;;;;14.97;9.90;;;;;;;6.82;95.18;97963.16;5083676;28;20267;-79
2022/12/03 05:33:19;;;;;;;17.50;10.00;;;;;;;6.48;96.42;97961.09;5084273;28;20214;-81
2022/12/03 05:35:46;;;;;;;19.83;11.13;;;;;;;6.40;97.12;97950.06;5077934;28;20237;-80
2022/12/03 05:38:13;;;;;;;18.17;11.23;;;;;;;6.44;99.70;97956.00;5076856;28;20202;-80
2022/12/03 05:40:40;;;;;;;21.23;12.03;;;;;;;6.32;99.21;97939.03;5073720;28;20199;-79
2022/12/03 05:43:07;;;;;;;19.43;11.73;;;;;;;6.53;97.91;97956.72;5075904;28;20747;-80
2022/12/03 05:45:37;;;;;;;21.50;11.67;;;;;;;6.65;97.34;97975.41;5084068;28;20193;-80
2022/12/03 05:48:07;;;;;;;19.57;11.63;;;;;;;6.80;97.24;97977.75;5079438;28;20619;-80
2022/12/03 05:50:37;;;;;;;23.67;14.97;;;;;;;6.75;97.61;97971.81;5089339;28;20755;-79
2022/12/03 05:53:14;;;;;;;21.90;14.37;;;;;;;6.72;96.92;97971.91;5082231;28;21059;-80
2022/12/03 05:55:41;;;;;;;25.50;13.97;;;;;;;6.92;96.15;97978.41;5073663;28;20231;-80
2022/12/03 05:58:08;;;;;;;26.27;16.07;;;;;;;6.88;96.62;97974.19;5068491;28;20251;-80
2022/12/03 06:00:37;;;;;;;22.50;14.53;;;;;;;6.90;96.09;97987.03;5087760;28;20272;-79
2022/12/03 06:03:09;;;;;;;22.97;14.77;;;;;;;6.75;95.48;97933.22;5088955;28;20200;-80
2022/12/03 06:05:36;;;;;;;23.77;15.40;;;;;;;7.02;95.01;97971.38;5084749;28;20202;-79
2022/12/03 06:08:03;;;;;;;32.63;18.87;;;;;;;7.15;95.30;97986.59;5077246;28;20261;-79
2022/12/03 06:10:31;;;;;;;36.93;22.13;;;;;;;7.13;94.78;97984.94;5068560;28;20197;-78
2022/12/03 06:12:58;;;;;;;31.97;19.80;;;;;;;6.86;95.60;97957.06;5085624;28;20283;-79
2022/12/03 06:15:25;;;;;;;27.97;15.53;;;;;;;6.87;96.56;97977.63;5085609;28;20228;-80
2022/12/03 06:17:52;;;;;;;21.10;13.43;;;;;;;6.68;96.59;97983.09;5081559;28;20313;-80
2022/12/03 06:20:20;;;;;;;27.20;14.20;;;;;;;6.76;96.68;97974.38;5073308;28;20211;-79
2022/12/03 06:22:48;;;;;;;21.13;12.63;;;;;;;6.76;96.95;97942.66;5079281;28;20256;-78
2022/12/03 06:25:16;;;;;;;18.97;12.07;;;;;;;7.03;95.70;97967.91;5086440;28;20207;-79
2022/12/03 06:27:43;;;;;;;22.23;12.00;;;;;;;7.18;95.19;97981.41;5077570;28;20214;-79
2022/12/03 06:30:13;;;;;;;23.57;13.63;;;;;;;7.28;94.93;97990.66;5080049;28;20210;-81
2022/12/03 06:32:40;;;;;;;20.90;13.90;;;;;;;7.28;94.43;97988.09;5074726;28;20202;-79
2022/12/03 06:36:31;;;;;;;;;;;;;;;;;;;;;
2022/12/03 06:40:23;;;;;;;26.10;15.13;;;;;;;7.24;94.25;97977.84;4953229;28;20291;-79
2022/12/03 06:42:50;;;;;;;24.83;14.93;;;;;;;7.52;93.60;98011.72;5001926;28;20308;-80
2022/12/03 06:45:17;;;;;;;23.27;14.57;;;;;;;7.53;92.87;98019.41;4990311;28;20207;-81
2022/12/03 06:47:51;;;;;;;21.97;13.53;;;;;;;7.47;93.21;98008.38;4997467;28;20209;-82
2022/12/03 06:50:18;;;;;;;16.23;10.57;;;;;;;7.32;92.55;98012.06;4979058;28;20649;-81
2022/12/03 06:52:45;;;;;;;17.80;11.47;;;;;;;7.42;93.47;98000.72;4990845;28;20743;-79
2022/12/03 06:55:12;;;;;;;14.87;9.97;;;;;;;7.58;92.79;98016.75;5002314;28;20235;-82
2022/12/03 06:57:42;;;;;;;18.53;9.57;;;;;;;7.46;92.76;98015.22;5040866;28;20318;-81
2022/12/03 07:00:09;;;;;;;14.00;9.07;;;;;;;7.47;93.00;98023.81;5067851;28;20773;-79
2022/12/03 07:02:36;;;;;;;11.97;8.37;;;;;;;7.48;92.98;98028.13;5083224;28;20215;-80
2022/12/03 07:05:04;;;;;;;14.07;9.00;;;;;;;7.46;93.67;98028.13;5086056;28;20191;-80
2022/12/03 07:07:31;;;;;;;14.97;9.23;;;;;;;7.46;92.92;98011.84;5086352;28;20215;-80
2022/12/03 07:09:58;;;;;;;12.07;8.80;;;;;;;7.39;93.18;98016.25;5082103;28;20260;-81
2022/12/03 07:12:25;;;;;;;12.70;7.83;;;;;;;7.35;93.86;98018.03;5076876;28;20203;-81
2022/12/03 07:14:52;;;;;;;11.03;8.63;;;;;;;7.43;93.31;98029.91;5069260;28;20220;-81
2022/12/03 07:17:19;;;;;;;11.33;7.97;;;;;;;7.46;92.71;98037.59;5086659;28;20237;-79
2022/12/03 07:19:46;;;;;;;13.53;9.63;;;;;;;7.30;93.04;97993.19;5059095;28;20298;-81
2022/12/03 07:22:15;;;;;;;15.37;9.63;;;;;;;7.25;93.13;98026.75;5068318;28;20211;-81
2022/12/03 07:24:42;;;;;;;13.23;9.73;;;;;;;7.31;92.82;98025.84;5068207;28;20195;-80
2022/12/03 07:27:09;;;;;;;14.37;9.43;;;;;;;7.49;93.80;98033.22;5067126;28;20218;-80
2022/12/03 07:29:36;;;;;;;12.77;8.97;;;;;;;7.46;93.59;98041.00;5067813;28;20223;-80
2022/12/03 07:32:04;;;;;;;12.63;8.90;;;;;;;7.44;92.97;98029.88;5066798;28;20284;-81
2022/12/03 07:34:30;;;;;;;14.93;10.53;;;;;;;7.57;92.67;98027.94;5066871;28;20197;-80
2022/12/03 07:36:57;;;;;;;19.87;12.83;;;;;;;7.39;92.06;98005.94;5067143;28;20204;-81
2022/12/03 07:39:24;;;;;;;20.23;12.90;;;;;;;7.50;92.05;98037.50;5066577;28;20680;-80
2022/12/03 07:41:51;;;;;;;21.77;14.67;;;;;;;7.56;92.94;98031.41;5048584;28;20203;-79
2022/12/03 07:44:18;;;;;;;23.23;15.40;;;;;;;7.53;92.31;98032.31;5066227;28;20203;-81
2022/12/03 07:46:45;;;;;;;26.53;17.57;;;;;;;7.65;92.62;98032.06;5067064;28;20663;-81
2022/12/03 07:49:12;;;;;;;23.97;16.47;;;;;;;7.64;93.12;98039.84;5066333;28;20292;-80
2022/12/03 07:51:39;;;;;;;26.47;18.37;;;;;;;7.68;91.76;98032.03;5067017;28;20202;-79
2022/12/03 07:54:07;;;;;;;24.90;15.57;;;;;;;7.49;91.98;98014.34;5066569;28;20213;-80
2022/12/03 07:56:34;;;;;;;17.10;11.83;;;;;;;7.65;92.25;98026.91;5066415;28;20233;-79
2022/12/03 07:59:01;;;;;;;16.73;10.77;;;;;;;7.58;92.55;98015.03;5065397;28;20241;-80
2022/12/03 08:01:28;;;;;;;20.63;12.93;;;;;;;7.79;91.40;98031.84;5066985;28;20195;-79
2022/12/03 08:03:56;;;;;;;20.07;13.00;;;;;;;7.85;91.99;98034.28;5066658;28;20196;-81
2022/12/03 08:06:22;;;;;;;21.20;13.20;;;;;;;7.89;91.78;98035.94;5049142;28;20216;-80
2022/12/03 08:08:50;;;;;;;26.07;15.67;;;;;;;7.94;91.29;98034.09;5067028;28;20325;-80
2022/12/03 08:11:20;;;;;;;25.67;16.80;;;;;;;7.95;91.19;98036.69;5066801;28;20188;-79
2022/12/03 08:13:48;;;;;;;30.17;19.17;;;;;;;7.94;91.23;98034.97;5076843;28;20210;-81
2022/12/03 08:16:18;;;;;;;32.23;18.60;;;;;;;7.92;91.63;98036.72;5086704;28;20231;-79
2022/12/03 08:18:46;;;;;;;31.40;19.37;;;;;;;8.00;91.38;98045.16;5087064;28;20188;-81
2022/12/03 08:21:16;;;;;;;31.90;18.27;;;;;;;8.08;90.92;98040.69;5086676;28;20199;-80
2022/12/03 08:23:43;;;;;;;28.53;18.30;;;;;;;7.89;90.57;98010.97;5087062;28;20236;-81
2022/12/03 08:26:22;;;;;;;21.83;14.93;;;;;;;8.12;90.94;98034.59;5086920;28;20582;-81
2022/12/03 08:28:50;;;;;;;19.70;12.57;;;;;;;7.97;90.50;98028.91;5086621;28;20247;-80
2022/12/03 08:31:24;;;;;;;20.77;13.97;;;;;;;8.17;90.59;98032.78;5086093;28;20602;-79
2022/12/03 08:34:19;;;;;;;28.67;17.57;;;;;;;8.18;89.88;98011.25;5085770;28;20310;-81
2022/12/03 08:36:49;;;;;;;23.53;16.60;;;;;;;8.49;89.11;98032.13;5085980;28;20270;-81
2022/12/03 08:39:33;;;;;;;28.17;17.07;;;;;;;8.42;88.88;98037.44;5082775;28;20209;-81
2022/12/03 08:45:31;;;;;;;19.33;12.63;;;;;;;8.41;88.99;98040.94;5066137;28;20201;-81
2022/12/03 08:48:04;;;;;;;17.77;12.33;;;;;;;8.30;89.20;98023.09;5066390;28;20192;-80
2022/12/03 08:50:38;;;;;;;17.93;13.10;;;;;;;8.48;89.35;98024.41;5066142;28;20291;-81
2022/12/03 08:53:37;;;;;;;23.97;15.07;;;;;;;8.38;88.55;97989.38;5066757;28;20267;-82
2022/12/03 08:56:31;;;;;;;22.33;12.87;;;;;;;8.16;89.04;98025.91;5071284;28;20240;-81
2022/12/03 08:59:29;;;;;;;18.23;11.63;;;;;;;8.34;89.75;98035.03;5049028;28;20244;-80
2022/12/03 09:01:59;;;;;;;17.60;12.03;;;;;;;8.39;89.47;98024.63;5084280;28;20611;-81
2022/12/03 09:04:26;;;;;;;19.37;12.57;;;;;;;8.26;88.54;98031.78;5086802;28;20331;-80
2022/12/03 09:06:54;;;;;;;21.80;15.10;;;;;;;8.37;88.33;98010.88;5067238;28;20671;-81
2022/12/03 09:09:22;;;;;;;20.53;12.63;;;;;;;8.34;88.49;97990.31;5068562;28;20612;-79
2022/12/03 09:11:49;;;;;;;19.93;13.53;;;;;;;8.68;87.93;98025.66;5081507;28;20276;-80
2022/12/03 09:14:19;;;;;;;26.03;17.17;;;;;;;8.62;87.44;97999.13;5078397;28;20628;-80
2022/12/03 09:16:47;;;;;;;19.00;13.73;;;;;;;8.90;87.81;98031.22;5068820;28;20233;-79
2022/12/03 09:19:15;;;;;;;20.67;12.57;;;;;;;8.88;87.57;98022.66;5073431;28;20192;-80
2022/12/03 09:21:42;;;;;;;16.20;11.20;;;;;;;9.01;86.66;98018.88;5089989;28;20679;-79
2022/12/03 09:24:09;;;;;;;13.93;9.67;;;;;;;9.04;86.71;98018.81;5089220;28;20193;-77
2022/12/03 09:26:36;;;;;;;16.40;10.33;;;;;;;8.94;87.15;97999.25;5088062;28;20317;-79
2022/12/03 09:29:03;;;;;;;15.10;11.13;;;;;;;9.08;86.45;98015.25;5089085;28;20220;-77
2022/12/03 09:31:37;;;;;;;14.33;10.10;;;;;;;9.16;85.53;98023.69;5089948;28;20205;-78
2022/12/03 09:34:05;;;;;;;17.30;11.67;;;;;;;9.20;85.71;98019.28;5071593;28;20196;-78
2022/12/03 09:36:32;;;;;;;15.13;10.07;;;;;;;9.14;85.47;98019.44;5089646;28;20263;-79
2022/12/03 09:38:59;;;;;;;13.97;10.60;;;;;;;9.12;85.70;98022.06;5090035;28;20718;-78
2022/12/03 09:41:26;;;;;;;14.13;10.00;;;;;;;9.13;85.57;98013.41;5094923;28;20181;-80
2022/12/03 09:43:55;;;;;;;15.93;11.17;;;;;;;8.82;85.34;97976.31;5094251;28;20694;-79
2022/12/03 09:46:34;;;;;;;15.03;11.33;;;;;;;9.02;85.79;97999.91;5094745;28;20211;-82
2022/12/03 09:49:03;;;;;;;21.20;13.43;;;;;;;9.19;85.19;98018.41;5095164;28;20189;-81
2022/12/03 09:51:34;;;;;;;17.80;13.20;;;;;;;9.25;84.98;98005.38;5083474;28;20723;-81
2022/12/03 09:54:05;;;;;;;19.83;13.07;;;;;;;9.33;84.05;98007.75;5073630;28;20196;-81
2022/12/03 09:56:36;;;;;;;19.20;13.47;;;;;;;9.17;83.90;97993.53;5075867;28;20235;-81
2022/12/03 09:59:12;;;;;;;19.40;11.73;;;;;;;8.82;83.03;97937.56;5076465;28;20255;-82
2022/12/03 10:01:39;;;;;;;16.83;11.23;;;;;;;8.98;82.56;97999.13;5071656;28;20211;-82
2022/12/03 10:04:07;;;;;;;17.87;10.83;;;;;;;8.98;82.14;97977.63;5071102;28;20668;-81
2022/12/03 10:06:34;;;;;;;11.13;7.57;;;;;;;8.91;80.98;97991.56;5071823;28;20200;-82
2022/12/03 10:09:05;;;;;;;12.63;8.80;;;;;;;9.02;81.58;97968.91;5073703;28;20889;-81
2022/12/03 10:11:34;;;;;;;15.60;10.27;;;;;;;9.24;81.24;97982.97;5089444;28;20219;-81
2022/12/03 10:14:01;;;;;;;12.30;9.27;;;;;;;9.16;81.44;97984.06;5096504;28;20204;-83
2022/12/03 10:16:32;;;;;;;13.50;9.03;;;;;;;8.95;82.75;97972.53;5091584;28;20224;-82
2022/12/03 10:19:02;;;;;;;17.07;10.33;;;;;;;9.13;81.81;97978.97;5088865;28;20279;-80
2022/12/03 10:21:37;;;;;;;19.83;11.90;;;;;;;9.16;81.38;97977.16;5080196;28;20228;-82
2022/12/03 10:24:25;;;;;;;10.57;7.67;;;;;;;9.07;80.95;97977.38;5085678;28;20207;-81
2022/12/03 10:26:56;;;;;;;11.57;7.67;;;;;;;9.09;80.80;97975.59;5087415;28;20196;-76
2022/12/03 10:29:26;;;;;;;7.20;5.23;;;;;;;9.03;79.24;97978.34;5088263;28;20248;-76
2022/12/03 10:32:01;;;;;;;7.57;5.40;;;;;;;9.19;79.56;97977.06;5087924;28;20286;-77
2022/12/03 10:34:39;;;;;;;11.17;7.47;;;;;;;9.01;80.14;97962.03;5081322;28;20780;-75
2022/12/03 10:37:16;;;;;;;8.30;5.77;;;;;;;9.18;79.73;97970.22;5076583;28;20267;-78
2022/12/03 10:39:54;;;;;;;7.93;5.53;;;;;;;9.26;79.76;97976.03;5058083;28;20218;-75
2022/12/03 10:42:24;;;;;;;13.80;7.10;;;;;;;9.30;80.17;97972.50;5068112;28;20209;-75
2022/12/03 10:45:06;;;;;;;13.50;6.93;;;;;;;9.44;79.74;97972.97;5067385;28;20192;-80
2022/12/03 10:47:33;;;;;;;9.07;6.00;;;;;;;9.45;79.30;97972.09;5067790;28;20224;-79
2022/12/03 10:50:04;;;;;;;14.43;7.00;;;;;;;9.56;79.93;97972.63;5067853;28;20566;-77
2022/12/03 10:52:31;;;;;;;13.90;6.10;;;;;;;9.58;79.31;97973.44;5067610;28;20201;-77
2022/12/03 10:54:58;;;;;;;14.00;6.10;;;;;;;9.50;78.94;97969.41;5078980;28;20631;-78
2022/12/03 10:57:25;;;;;;;13.37;6.60;;;;;;;9.53;79.01;97971.88;5087598;28;20223;-79
2022/12/03 10:59:52;;;;;;;9.33;6.50;;;;;;;9.55;78.51;97970.09;5069380;28;20240;-78
2022/12/03 11:02:23;;;;;;;8.93;5.77;;;;;;;9.29;78.27;97926.88;5088082;28;20253;-78
2022/12/03 11:04:50;;;;;;;13.30;8.40;;;;;;;9.50;79.76;97971.97;5086944;28;20216;-76
2022/12/03 11:07:20;;;;;;;16.90;10.00;;;;;;;9.53;80.57;97972.75;5087852;28;20203;-76
2022/12/03 11:09:50;;;;;;;18.07;11.93;;;;;;;9.45;81.20;97958.31;5087437;28;20640;-77
2022/12/03 11:12:21;;;;;;;20.53;9.87;;;;;;;9.58;80.78;97954.53;5069243;28;20192;-81
2022/12/03 11:14:49;;;;;;;15.90;10.57;;;;;;;9.66;80.56;97963.78;5088178;28;20197;-81
2022/12/03 11:17:39;;;;;;;15.93;10.50;;;;;;;9.80;80.27;97973.72;5087652;28;20305;-81
2022/12/03 11:20:34;;;;;;;15.97;10.80;;;;;;;9.79;79.55;97961.66;5087373;28;20565;-77
2022/12/03 11:23:01;;;;;;;14.87;9.80;;;;;;;9.71;79.21;97966.22;5087216;28;20656;-79
2022/12/03 11:25:30;;;;;;;12.17;9.67;;;;;;;9.74;79.05;97956.66;5069027;28;20223;-79
2022/12/03 11:28:09;;;;;;;16.70;9.17;;;;;;;9.65;79.49;97967.22;5087593;28;20206;-78
2022/12/03 11:30:48;;;;;;;15.50;9.73;;;;;;;9.55;79.80;97964.94;5087101;28;20197;-76
2022/12/03 11:33:26;;;;;;;12.10;8.67;;;;;;;9.68;79.34;97962.00;5087183;28;20342;-82
2022/12/03 11:36:02;;;;;;;14.67;9.63;;;;;;;9.76;78.99;97959.19;5086752;28;20223;-83
2022/12/03 11:38:58;;;;;;;19.53;9.90;;;;;;;9.64;79.40;97938.84;5087052;28;20203;-79
2022/12/03 11:41:31;;;;;;;13.47;9.07;;;;;;;9.71;78.93;97966.22;5066911;28;20231;-83
2022/12/03 11:44:24;;;;;;;13.53;8.73;;;;;;;9.67;79.41;97962.88;5087758;28;20191;-83
2022/12/03 11:46:51;;;;;;;10.77;8.60;;;;;;;9.60;78.66;97942.41;5088576;28;20639;-83
2022/12/03 11:49:44;;;;;;;19.27;11.73;;;;;;;9.71;78.93;97966.22;5071524;28;20196;-82
2022/12/03 11:52:20;;;;;;;13.97;8.83;;;;;;;9.68;78.29;97950.78;5088567;28;20185;-82
2022/12/03 11:54:52;;;;;;;8.40;6.73;;;;;;;9.58;78.07;97959.69;5089562;28;20196;-85
2022/12/03 11:57:28;;;;;;;11.43;7.30;;;;;;;9.46;77.88;97921.25;5088061;28;20239;-83
2022/12/03 11:59:57;;;;;;;8.30;5.97;;;;;;;9.53;77.16;97953.78;5090509;28;20228;-81
2022/12/03 12:03:15;;;;;;;8.03;5.77;;;;;;;9.52;77.82;97959.84;5059070;28;20208;-83
2022/12/03 12:05:44;;;;;;;7.63;5.63;;;;;;;9.53;77.81;97956.38;5071537;28;20196;-82
2022/12/03 12:08:18;;;;;;;10.57;6.30;;;;;;;9.35;77.57;97942.22;5080104;28;20275;-82
2022/12/03 12:10:47;;;;;;;10.93;7.47;;;;;;;9.56;77.66;97951.13;5068281;28;20184;-81